KOLV/OLV METAR and TAF weather

Enter ICAO airport designator
Station Type Date Time Source
KOLV METAR 2021/05/14 11:50 UTC NOAA

KOLV 141150Z 05004KT 10SM SKC 10/07 A3029


Station Type Date Time Source
KOLV Decoded METAR 2021/05/14 11:50 UTC NOAA

Olive Branch, Olive Branch Airport, MS, United States (KOLV) 34-58-44N 089-47-13W
May 14, 2021 - 07:50 AM EDT / 2021.05.14 1150 UTC
Wind: from the NE (050 degrees) at 5 MPH (4 KT):0
Visibility: 10 mile(s):0
Sky conditions: clear
Temperature: 50 F (10 C)
Dew Point: 44 F (7 C)
Relative Humidity: 81%
Pressure (altimeter): 30.29 in. Hg (1025 hPa)
ob: KOLV 141150Z 05004KT 10SM SKC 10/07 A3029
cycle: 12

Station Type Date Time Source
KOLV TAF UTC NOAA

Error!

Example: see airport list